Time;durP1;ratioP1;P1;durP2;ratioP2;P2;SDS_P1;SDS_P2;PMS_P1;PMS_P2;Temp;Humidity;BMP_temperature;BMP_pressure;BME280_temperature;BME280_humidity;BME280_pressure;Samples;Min_cycle;Max_cycle;Signal;HPM_P1;HPM_P2
2023/03/08 00:01:13;;;;;;;24.83;12.35;;;;;;;;;;4995193;28;20424;-45
2023/03/08 00:03:39;;;;;;;21.02;11.57;;;;;;;;;;4995879;28;20196;-45
2023/03/08 00:06:07;;;;;;;21.85;12.15;;;;;;;;;;4996343;28;20178;-45
2023/03/08 00:08:32;;;;;;;23.73;12.02;;;;;;;;;;4995696;28;20178;-45
2023/03/08 00:10:58;;;;;;;21.13;12.17;;;;;;;;;;4995069;28;20200;-45
2023/03/08 00:13:24;;;;;;;27.77;13.27;;;;;;;;;;4994594;28;20466;-45
2023/03/08 00:15:51;;;;;;;23.88;13.02;;;;;;;;;;5001996;28;20420;-45
2023/03/08 00:18:17;;;;;;;19.77;12.18;;;;;;;;;;4994422;28;20205;-45
2023/03/08 00:20:43;;;;;;;24.57;12.57;;;;;;;;;;4997034;28;20189;-45
2023/03/08 00:23:09;;;;;;;35.90;14.77;;;;;;;;;;4995737;28;20438;-45
2023/03/08 00:25:35;;;;;;;24.30;13.17;;;;;;;;;;4995347;28;20459;-45
2023/03/08 00:28:01;;;;;;;26.53;13.13;;;;;;;;;;4995025;28;20776;-45
2023/03/08 00:30:27;;;;;;;21.40;13.07;;;;;;;;;;4994672;28;20799;-45
2023/03/08 00:32:53;;;;;;;30.20;13.80;;;;;;;;;;4995519;28;20431;-45
2023/03/08 00:35:19;;;;;;;23.87;13.27;;;;;;;;;;4995235;28;20555;-45
2023/03/08 00:37:45;;;;;;;23.42;12.82;;;;;;;;;;4998596;28;20436;-44
2023/03/08 00:40:11;;;;;;;25.03;13.10;;;;;;;;;;4993757;28;20299;-44
2023/03/08 00:42:38;;;;;;;31.40;15.00;;;;;;;;;;4993463;28;20633;-43
2023/03/08 00:45:04;;;;;;;24.90;12.57;;;;;;;;;;4992706;28;20260;-44
2023/03/08 00:47:30;;;;;;;23.90;15.55;;;;;;;;;;4992906;28;20189;-44
2023/03/08 00:49:57;;;;;;;32.57;15.40;;;;;;;;;;4993813;28;20208;-44
2023/03/08 00:52:23;;;;;;;28.27;14.93;;;;;;;;;;4993803;28;20515;-44
2023/03/08 00:54:49;;;;;;;28.43;14.43;;;;;;;;;;4994026;28;20216;-44
2023/03/08 00:57:15;;;;;;;32.23;15.03;;;;;;;;;;4999642;28;20420;-44
2023/03/08 00:59:41;;;;;;;25.00;14.38;;;;;;;;;;4994446;28;20420;-44
2023/03/08 01:02:07;;;;;;;29.03;15.67;;;;;;;;;;4993152;28;20201;-44
2023/03/08 01:04:33;;;;;;;21.33;13.20;;;;;;;;;;4994259;28;20404;-44
2023/03/08 01:07:00;;;;;;;28.23;15.02;;;;;;;;;;4994186;28;20408;-44
2023/03/08 01:09:26;;;;;;;25.15;13.93;;;;;;;;;;4999052;28;20211;-44
2023/03/08 01:11:52;;;;;;;24.67;14.27;;;;;;;;;;4993137;28;20283;-44
2023/03/08 01:14:17;;;;;;;26.17;14.33;;;;;;;;;;4993293;28;20414;-45
2023/03/08 01:16:44;;;;;;;21.53;13.50;;;;;;;;;;4993178;28;20467;-44
2023/03/08 01:19:10;;;;;;;28.65;14.73;;;;;;;;;;4997307;28;20423;-45
2023/03/08 01:21:36;;;;;;;21.80;12.65;;;;;;;;;;4993151;28;20424;-44
2023/03/08 01:24:02;;;;;;;30.55;15.70;;;;;;;;;;4993766;28;20213;-44
2023/03/08 01:26:29;;;;;;;30.42;14.50;;;;;;;;;;4993749;28;20211;-44
2023/03/08 01:28:55;;;;;;;24.52;15.27;;;;;;;;;;4993642;28;20185;-44
2023/03/08 01:31:25;;;;;;;24.00;14.00;;;;;;;;;;4994800;28;20210;-44
2023/03/08 01:33:51;;;;;;;29.58;16.85;;;;;;;;;;4993077;28;20657;-44
2023/03/08 01:36:19;;;;;;;28.83;15.47;;;;;;;;;;4993964;28;20192;-44
2023/03/08 01:38:45;;;;;;;24.05;14.23;;;;;;;;;;4993258;28;20418;-44
2023/03/08 01:41:16;;;;;;;24.58;15.00;;;;;;;;;;4993094;28;20272;-45
2023/03/08 01:43:42;;;;;;;25.33;14.23;;;;;;;;;;4993453;28;20169;-44
2023/03/08 01:46:27;;;;;;;29.75;13.73;;;;;;;;;;4992646;28;20189;-44
2023/03/08 01:48:55;;;;;;;26.27;15.13;;;;;;;;;;4990616;28;20263;-44
2023/03/08 01:51:29;;;;;;;31.73;13.68;;;;;;;;;;4991614;28;20220;-45
2023/03/08 01:53:55;;;;;;;29.83;16.00;;;;;;;;;;4993123;28;20320;-44
2023/03/08 01:56:21;;;;;;;25.17;13.48;;;;;;;;;;4993105;28;20217;-44
2023/03/08 01:58:48;;;;;;;25.17;14.60;;;;;;;;;;4994726;28;20192;-44
2023/03/08 02:01:14;;;;;;;25.35;14.88;;;;;;;;;;4991787;28;20203;-44
2023/03/08 02:03:40;;;;;;;26.15;15.13;;;;;;;;;;4992450;28;20181;-44
2023/03/08 02:06:07;;;;;;;28.30;16.03;;;;;;;;;;4992491;28;20656;-44
2023/03/08 02:08:33;;;;;;;27.83;13.93;;;;;;;;;;4991885;28;20404;-44
2023/03/08 02:11:00;;;;;;;28.80;16.90;;;;;;;;;;4992210;28;20219;-44
2023/03/08 02:13:26;;;;;;;28.70;15.10;;;;;;;;;;4992804;28;20177;-45
2023/03/08 02:15:54;;;;;;;30.10;15.63;;;;;;;;;;4991702;28;20638;-44
2023/03/08 02:18:20;;;;;;;28.77;14.77;;;;;;;;;;4992880;28;20169;-44
2023/03/08 02:20:46;;;;;;;26.75;14.32;;;;;;;;;;4992011;28;20180;-44
2023/03/08 02:23:16;;;;;;;26.33;14.47;;;;;;;;;;4992730;28;20565;-44
2023/03/08 02:26:09;;;;;;;26.08;12.70;;;;;;;;;;4992677;28;20759;-44
2023/03/08 02:28:35;;;;;;;26.75;13.63;;;;;;;;;;4990692;28;20676;-45
2023/03/08 02:31:00;;;;;;;23.83;13.07;;;;;;;;;;4991783;28;20189;-45
2023/03/08 02:33:27;;;;;;;29.40;14.80;;;;;;;;;;4992716;28;20431;-44
2023/03/08 02:35:53;;;;;;;27.88;14.23;;;;;;;;;;4992189;28;20467;-44
2023/03/08 02:38:19;;;;;;;21.13;13.02;;;;;;;;;;4992907;28;20184;-44
2023/03/08 02:40:46;;;;;;;26.77;14.57;;;;;;;;;;4991782;28;20191;-44
2023/03/08 02:43:12;;;;;;;23.75;12.32;;;;;;;;;;4992868;28;20204;-44
2023/03/08 02:45:38;;;;;;;29.27;15.10;;;;;;;;;;4992438;28;20192;-44
2023/03/08 02:48:04;;;;;;;27.40;13.30;;;;;;;;;;4990042;28;20189;-44
2023/03/08 02:50:31;;;;;;;36.67;15.88;;;;;;;;;;4991784;28;20470;-44
2023/03/08 02:52:57;;;;;;;23.15;13.70;;;;;;;;;;4992222;28;20212;-44
2023/03/08 02:55:23;;;;;;;23.42;12.82;;;;;;;;;;4992266;28;20217;-44
2023/03/08 02:57:49;;;;;;;22.17;13.50;;;;;;;;;;4992185;28;20216;-45
2023/03/08 03:00:15;;;;;;;22.67;13.37;;;;;;;;;;4991667;28;20424;-44
2023/03/08 03:02:41;;;;;;;23.35;12.95;;;;;;;;;;4992295;28;21171;-44
2023/03/08 03:05:11;;;;;;;23.60;13.53;;;;;;;;;;4992461;28;20261;-44
2023/03/08 03:07:39;;;;;;;27.60;13.68;;;;;;;;;;4992202;28;20491;-45
2023/03/08 03:10:05;;;;;;;22.33;13.15;;;;;;;;;;4991722;28;20244;-44
2023/03/08 03:12:31;;;;;;;25.88;13.10;;;;;;;;;;4992055;28;20197;-44
2023/03/08 03:14:57;;;;;;;25.67;13.35;;;;;;;;;;4992261;28;20191;-44
2023/03/08 03:17:23;;;;;;;20.87;13.07;;;;;;;;;;4991052;28;20188;-45
2023/03/08 03:19:49;;;;;;;30.97;13.77;;;;;;;;;;4990588;28;20436;-44
2023/03/08 03:22:15;;;;;;;20.83;12.20;;;;;;;;;;4995346;28;20436;-44
2023/03/08 03:24:41;;;;;;;26.70;14.43;;;;;;;;;;4996160;28;20484;-44
2023/03/08 03:27:07;;;;;;;23.90;14.37;;;;;;;;;;4995963;28;20417;-44
2023/03/08 03:29:33;;;;;;;22.83;12.00;;;;;;;;;;4991338;28;20530;-44
2023/03/08 03:31:59;;;;;;;20.40;12.37;;;;;;;;;;4995206;28;20436;-44
2023/03/08 03:34:25;;;;;;;24.47;12.87;;;;;;;;;;4995804;28;20475;-44
2023/03/08 03:36:51;;;;;;;25.13;12.68;;;;;;;;;;4995810;28;20558;-44
2023/03/08 03:39:17;;;;;;;28.33;12.53;;;;;;;;;;4995844;28;20263;-44
2023/03/08 03:41:43;;;;;;;27.90;11.87;;;;;;;;;;4994867;28;20432;-44
2023/03/08 03:44:08;;;;;;;22.00;12.13;;;;;;;;;;4995757;28;20400;-45
2023/03/08 03:46:34;;;;;;;30.03;14.90;;;;;;;;;;4995752;28;20415;-44
2023/03/08 03:49:00;;;;;;;20.33;12.20;;;;;;;;;;4993810;28;20451;-44
2023/03/08 03:51:26;;;;;;;27.27;13.10;;;;;;;;;;4994834;28;21049;-44
2023/03/08 03:53:53;;;;;;;24.80;13.50;;;;;;;;;;4995401;28;20753;-44
2023/03/08 03:56:23;;;;;;;20.48;11.55;;;;;;;;;;4995365;28;20447;-44
2023/03/08 03:58:50;;;;;;;26.70;13.15;;;;;;;;;;4995541;28;20189;-44
2023/03/08 04:01:17;;;;;;;20.35;11.43;;;;;;;;;;4994690;28;20649;-44
2023/03/08 04:03:43;;;;;;;23.30;13.25;;;;;;;;;;4995532;28;20181;-44
2023/03/08 04:06:13;;;;;;;24.45;12.57;;;;;;;;;;4995493;28;20200;-44
2023/03/08 04:08:41;;;;;;;23.92;12.00;;;;;;;;;;4998369;28;20239;-45
2023/03/08 04:11:11;;;;;;;26.60;13.80;;;;;;;;;;4994334;28;20664;-45
2023/03/08 04:13:37;;;;;;;20.15;11.40;;;;;;;;;;4994116;28;20290;-44
2023/03/08 04:16:16;;;;;;;23.00;12.32;;;;;;;;;;4995089;28;20268;-44
2023/03/08 04:18:42;;;;;;;25.27;12.45;;;;;;;;;;4995117;28;20204;-45
2023/03/08 04:21:09;;;;;;;23.95;12.32;;;;;;;;;;4986367;28;20260;-44
2023/03/08 04:23:35;;;;;;;21.92;12.23;;;;;;;;;;4994929;28;20201;-45
2023/03/08 04:26:01;;;;;;;20.90;12.20;;;;;;;;;;4994923;28;20177;-45
2023/03/08 04:28:27;;;;;;;19.70;12.00;;;;;;;;;;4994999;28;20173;-44
2023/03/08 04:30:53;;;;;;;29.67;14.38;;;;;;;;;;4993777;28;20205;-44
2023/03/08 04:33:20;;;;;;;24.27;14.45;;;;;;;;;;4994564;28;20276;-44
2023/03/08 04:35:46;;;;;;;29.00;13.65;;;;;;;;;;4994683;28;20178;-44
2023/03/08 04:38:12;;;;;;;30.10;15.13;;;;;;;;;;4994649;28;20256;-44
2023/03/08 04:43:23;;;;;;;30.08;13.93;;;;;;;;;;4988938;28;20575;-44
2023/03/08 04:45:49;;;;;;;23.87;13.57;;;;;;;;;;4994522;28;20173;-44
2023/03/08 04:48:15;;;;;;;22.70;12.30;;;;;;;;;;4994597;28;20495;-44
2023/03/08 04:50:41;;;;;;;24.90;12.40;;;;;;;;;;4993637;28;20488;-44
2023/03/08 04:53:07;;;;;;;25.77;13.47;;;;;;;;;;4994678;28;20428;-44
2023/03/08 04:55:33;;;;;;;20.93;11.43;;;;;;;;;;4994462;28;20415;-44
2023/03/08 04:57:59;;;;;;;19.95;10.45;;;;;;;;;;4994345;28;20416;-44
2023/03/08 05:00:25;;;;;;;21.87;11.90;;;;;;;;;;4993656;28;20192;-44
2023/03/08 05:02:51;;;;;;;28.93;12.50;;;;;;;;;;4994202;28;20531;-44
2023/03/08 05:05:17;;;;;;;27.63;14.50;;;;;;;;;;4993613;28;20441;-45
2023/03/08 05:07:43;;;;;;;22.53;12.80;;;;;;;;;;4993812;28;20931;-44
2023/03/08 05:10:09;;;;;;;22.13;12.13;;;;;;;;;;4993369;28;20482;-45
2023/03/08 05:12:35;;;;;;;30.77;13.32;;;;;;;;;;4993964;28;20440;-44
2023/03/08 05:15:01;;;;;;;26.10;14.53;;;;;;;;;;4993954;28;20191;-44
2023/03/08 05:17:27;;;;;;;21.70;12.07;;;;;;;;;;4993934;28;20417;-44
2023/03/08 05:19:53;;;;;;;26.83;13.73;;;;;;;;;;4994129;28;20583;-44
2023/03/08 05:22:19;;;;;;;25.10;13.70;;;;;;;;;;4993299;28;20287;-44
2023/03/08 05:24:47;;;;;;;22.30;12.47;;;;;;;;;;4994111;28;20793;-44
2023/03/08 05:27:13;;;;;;;25.95;13.55;;;;;;;;;;4986607;28;20494;-44
2023/03/08 05:29:39;;;;;;;24.95;12.32;;;;;;;;;;4993753;28;20205;-44
2023/03/08 05:32:05;;;;;;;25.97;12.20;;;;;;;;;;4992232;28;20347;-44
2023/03/08 05:34:31;;;;;;;35.97;13.35;;;;;;;;;;4992477;28;20932;-44
2023/03/08 05:36:58;;;;;;;27.30;12.70;;;;;;;;;;4993532;28;20268;-44
2023/03/08 05:39:24;;;;;;;28.73;12.68;;;;;;;;;;4993595;28;20408;-44
2023/03/08 05:41:50;;;;;;;24.30;13.03;;;;;;;;;;4992834;28;20196;-45
2023/03/08 05:44:15;;;;;;;20.93;10.77;;;;;;;;;;4992797;28;20410;-43
2023/03/08 05:46:41;;;;;;;25.90;12.30;;;;;;;;;;4993352;28;20457;-44
2023/03/08 05:49:07;;;;;;;26.93;11.63;;;;;;;;;;4993049;28;20417;-45
2023/03/08 05:51:33;;;;;;;26.13;11.50;;;;;;;;;;4992721;28;20483;-44
2023/03/08 05:53:59;;;;;;;20.47;10.83;;;;;;;;;;4993187;28;20815;-44
2023/03/08 05:56:25;;;;;;;19.53;10.40;;;;;;;;;;4992135;28;20517;-44
2023/03/08 05:58:52;;;;;;;20.30;10.37;;;;;;;;;;4992615;28;20447;-44
2023/03/08 06:01:18;;;;;;;18.30;7.72;;;;;;;;;;4992379;28;20448;-44
2023/03/08 06:03:44;;;;;;;13.10;7.23;;;;;;;;;;4993189;28;20677;-44
2023/03/08 06:06:10;;;;;;;15.65;8.35;;;;;;;;;;4993147;28;20416;-44
2023/03/08 06:08:36;;;;;;;13.87;7.07;;;;;;;;;;4993158;28;20671;-44
2023/03/08 06:11:03;;;;;;;9.68;5.43;;;;;;;;;;4991461;28;20476;-44
2023/03/08 06:13:29;;;;;;;16.05;6.85;;;;;;;;;;4992985;28;20185;-44
2023/03/08 06:15:56;;;;;;;14.27;6.80;;;;;;;;;;4992720;28;20707;-45
2023/03/08 06:18:22;;;;;;;13.82;7.57;;;;;;;;;;4992871;28;20435;-45
2023/03/08 06:21:14;;;;;;;16.35;8.75;;;;;;;;;;4992173;28;20227;-44
2023/03/08 06:23:40;;;;;;;14.90;7.90;;;;;;;;;;4989647;28;20265;-44
2023/03/08 06:26:06;;;;;;;8.17;5.90;;;;;;;;;;4992754;28;20202;-44
2023/03/08 06:28:33;;;;;;;8.65;5.30;;;;;;;;;;4990614;28;20435;-44
2023/03/08 06:30:59;;;;;;;9.07;5.47;;;;;;;;;;4991818;28;20291;-44
2023/03/08 06:33:26;;;;;;;11.00;5.80;;;;;;;;;;4992100;28;20689;-44
2023/03/08 06:35:59;;;;;;;9.57;5.80;;;;;;;;;;4992602;28;20408;-44
2023/03/08 06:38:26;;;;;;;12.65;7.07;;;;;;;;;;4992565;28;20538;-44
2023/03/08 06:40:52;;;;;;;8.77;5.50;;;;;;;;;;4992468;28;20247;-43
2023/03/08 06:43:18;;;;;;;12.32;7.70;;;;;;;;;;4992670;28;20669;-43
2023/03/08 06:45:44;;;;;;;13.27;5.97;;;;;;;;;;4990619;28;20259;-44
2023/03/08 06:48:10;;;;;;;9.50;5.13;;;;;;;;;;4992226;28;20210;-43
2023/03/08 06:50:36;;;;;;;15.30;5.40;;;;;;;;;;4988511;28;20456;-44
2023/03/08 06:53:02;;;;;;;7.70;5.80;;;;;;;;;;4991779;28;20447;-42
2023/03/08 06:55:28;;;;;;;7.67;4.90;;;;;;;;;;4991764;28;20424;-42
2023/03/08 06:57:54;;;;;;;6.30;4.50;;;;;;;;;;4991735;28;20420;-43
2023/03/08 07:00:20;;;;;;;6.55;4.15;;;;;;;;;;4989067;28;20438;-43
2023/03/08 07:02:47;;;;;;;8.18;4.03;;;;;;;;;;4989912;28;20200;-44
2023/03/08 07:05:14;;;;;;;6.72;4.80;;;;;;;;;;4992745;28;20208;-43
2023/03/08 07:07:40;;;;;;;5.95;4.00;;;;;;;;;;4995139;28;20735;-43
2023/03/08 07:10:07;;;;;;;6.22;3.70;;;;;;;;;;4991414;28;20211;-43
2023/03/08 07:12:35;;;;;;;6.35;3.42;;;;;;;;;;4992073;28;20228;-42
2023/03/08 07:15:01;;;;;;;5.22;4.30;;;;;;;;;;4992413;28;20181;-43
2023/03/08 07:17:27;;;;;;;4.05;2.53;;;;;;;;;;4990994;28;20649;-43
2023/03/08 07:19:53;;;;;;;3.20;2.90;;;;;;;;;;4991989;28;20267;-42
2023/03/08 07:22:19;;;;;;;7.40;3.20;;;;;;;;;;4991439;28;20441;-43
2023/03/08 07:24:47;;;;;;;3.77;2.93;;;;;;;;;;4991972;28;20427;-42
2023/03/08 07:27:13;;;;;;;3.63;2.90;;;;;;;;;;4992055;28;20411;-43
2023/03/08 07:29:39;;;;;;;3.80;3.10;;;;;;;;;;4992226;28;20276;-43
2023/03/08 07:32:05;;;;;;;5.47;3.60;;;;;;;;;;4991465;28;20443;-43
2023/03/08 07:34:31;;;;;;;3.33;3.08;;;;;;;;;;4991796;28;20432;-43
2023/03/08 07:36:57;;;;;;;3.57;2.83;;;;;;;;;;4991949;28;20225;-44
2023/03/08 07:39:23;;;;;;;3.60;3.33;;;;;;;;;;4991863;28;20824;-42
2023/03/08 07:41:49;;;;;;;5.77;3.27;;;;;;;;;;4991180;28;20431;-42
2023/03/08 07:44:15;;;;;;;2.20;2.00;;;;;;;;;;4991877;28;20416;-42
2023/03/08 07:46:41;;;;;;;7.20;2.60;;;;;;;;;;4998922;28;20420;-42
2023/03/08 07:49:10;;;;;;;2.93;2.60;;;;;;;;;;4990878;28;20428;-42
2023/03/08 07:51:36;;;;;;;2.45;2.25;;;;;;;;;;4990379;28;20506;-44
2023/03/08 07:54:02;;;;;;;2.13;2.03;;;;;;;;;;4991598;28;20185;-43
2023/03/08 07:56:29;;;;;;;2.00;1.90;;;;;;;;;;4991757;28;20215;-45
2023/03/08 07:58:58;;;;;;;2.15;2.00;;;;;;;;;;4992577;28;20184;-43
2023/03/08 08:01:24;;;;;;;6.90;2.05;;;;;;;;;;4997034;28;20200;-42
2023/03/08 08:03:50;;;;;;;2.33;2.13;;;;;;;;;;4991696;28;20628;-43
2023/03/08 08:06:16;;;;;;;3.08;2.10;;;;;;;;;;4994386;28;20199;-43
2023/03/08 08:08:42;;;;;;;3.53;2.30;;;;;;;;;;4995162;28;20653;-44
2023/03/08 08:11:15;;;;;;;2.47;2.03;;;;;;;;;;4999822;28;20467;-43
2023/03/08 08:13:41;;;;;;;2.85;2.00;;;;;;;;;;5001983;28;20451;-42
2023/03/08 08:16:09;;;;;;;3.88;2.80;;;;;;;;;;4995100;28;20213;-42
2023/03/08 08:18:35;;;;;;;1.60;1.50;;;;;;;;;;4993713;28;20185;-43
2023/03/08 08:21:02;;;;;;;2.90;2.20;;;;;;;;;;4993611;28;20165;-42
2023/03/08 08:23:28;;;;;;;5.20;2.22;;;;;;;;;;4994970;28;20177;-42
2023/03/08 08:25:55;;;;;;;3.33;3.05;;;;;;;;;;4994893;28;20590;-44
2023/03/08 08:28:21;;;;;;;2.95;2.65;;;;;;;;;;4994909;28;20184;-42
2023/03/08 08:30:55;;;;;;;3.00;2.72;;;;;;;;;;4992992;28;20279;-42
2023/03/08 08:33:21;;;;;;;4.00;2.70;;;;;;;;;;4994597;28;20201;-43
2023/03/08 08:35:47;;;;;;;4.53;3.70;;;;;;;;;;4994747;28;20268;-42
2023/03/08 08:38:12;;;;;;;4.30;3.30;;;;;;;;;;4994712;28;20416;-42
2023/03/08 08:40:39;;;;;;;6.30;3.47;;;;;;;;;;4994041;28;20416;-43
2023/03/08 08:43:04;;;;;;;5.40;3.22;;;;;;;;;;4994543;28;21002;-42
2023/03/08 08:45:30;;;;;;;5.40;3.37;;;;;;;;;;4994617;28;20193;-43
2023/03/08 08:47:56;;;;;;;4.53;3.27;;;;;;;;;;4994428;28;20424;-43
2023/03/08 08:50:22;;;;;;;5.07;3.00;;;;;;;;;;4992844;28;20530;-44
2023/03/08 08:52:48;;;;;;;4.00;2.57;;;;;;;;;;4999635;28;20447;-43
2023/03/08 08:55:14;;;;;;;2.33;1.98;;;;;;;;;;4994430;28;20507;-43
2023/03/08 08:57:40;;;;;;;2.70;2.50;;;;;;;;;;4992692;28;20267;-42
2023/03/08 09:00:08;;;;;;;3.57;2.40;;;;;;;;;;4993696;28;20412;-43
2023/03/08 09:02:34;;;;;;;2.55;2.35;;;;;;;;;;4994051;28;20439;-43
2023/03/08 09:05:00;;;;;;;2.87;2.67;;;;;;;;;;4994191;28;20184;-43
2023/03/08 09:07:26;;;;;;;2.42;2.22;;;;;;;;;;4994252;28;20408;-43
2023/03/08 09:09:55;;;;;;;2.63;2.42;;;;;;;;;;5000825;28;20207;-43
2023/03/08 09:12:21;;;;;;;3.20;2.90;;;;;;;;;;4993451;28;20244;-42
2023/03/08 09:14:47;;;;;;;3.20;2.43;;;;;;;;;;4993800;28;20205;-43
2023/03/08 09:17:13;;;;;;;3.20;3.00;;;;;;;;;;4993624;28;20421;-43
2023/03/08 09:19:39;;;;;;;7.25;2.58;;;;;;;;;;4993165;28;20186;-43
2023/03/08 09:22:05;;;;;;;3.17;2.90;;;;;;;;;;4993241;28;20208;-43
2023/03/08 09:24:31;;;;;;;2.73;2.53;;;;;;;;;;4994219;28;20417;-45
2023/03/08 09:26:57;;;;;;;4.13;2.43;;;;;;;;;;4992087;28;20501;-43
2023/03/08 09:29:23;;;;;;;2.57;2.33;;;;;;;;;;4992858;28;20436;-42
2023/03/08 09:31:49;;;;;;;3.00;2.80;;;;;;;;;;4992883;28;20429;-42
2023/03/08 09:34:15;;;;;;;3.60;3.30;;;;;;;;;;4993485;28;20796;-43
2023/03/08 09:36:41;;;;;;;3.88;3.58;;;;;;;;;;4993654;28;20404;-43
2023/03/08 09:39:08;;;;;;;2.53;2.38;;;;;;;;;;4993668;28;20171;-43
2023/03/08 09:41:41;;;;;;;4.13;2.95;;;;;;;;;;4992920;28;20197;-43
2023/03/08 09:44:10;;;;;;;3.28;2.28;;;;;;;;;;4993445;28;20185;-43
2023/03/08 09:46:38;;;;;;;2.95;2.63;;;;;;;;;;4993407;28;20194;-42
2023/03/08 09:49:05;;;;;;;2.60;2.40;;;;;;;;;;4993438;28;20177;-43
2023/03/08 09:51:35;;;;;;;2.15;2.05;;;;;;;;;;4992609;28;20247;-44
2023/03/08 09:54:12;;;;;;;2.60;2.40;;;;;;;;;;4993257;28;20177;-44
2023/03/08 09:56:44;;;;;;;2.50;2.30;;;;;;;;;;4992313;28;20172;-43
2023/03/08 09:59:15;;;;;;;3.97;3.58;;;;;;;;;;4982623;28;20181;-43
2023/03/08 10:01:46;;;;;;;3.22;2.40;;;;;;;;;;4992286;28;20228;-44
2023/03/08 10:04:14;;;;;;;2.45;2.25;;;;;;;;;;4990815;28;20259;-43
2023/03/08 10:06:56;;;;;;;2.88;2.60;;;;;;;;;;4992920;28;20181;-44
2023/03/08 10:09:40;;;;;;;2.95;2.15;;;;;;;;;;4986492;28;20181;-42
2023/03/08 10:12:15;;;;;;;2.60;2.50;;;;;;;;;;4992179;28;20673;-44
2023/03/08 10:14:44;;;;;;;2.50;2.30;;;;;;;;;;4992740;28;20683;-43
2023/03/08 10:17:16;;;;;;;2.53;2.40;;;;;;;;;;4985165;28;20190;-42
2023/03/08 10:19:50;;;;;;;2.22;2.03;;;;;;;;;;4992511;28;20189;-43
2023/03/08 10:22:25;;;;;;;2.55;2.35;;;;;;;;;;4985058;28;20201;-44
2023/03/08 10:24:54;;;;;;;2.90;2.70;;;;;;;;;;4998075;28;20187;-44
2023/03/08 10:27:20;;;;;;;4.25;3.22;;;;;;;;;;4990604;28;20187;-45
2023/03/08 10:29:50;;;;;;;2.95;2.75;;;;;;;;;;4991199;28;20192;-44
2023/03/08 10:32:16;;;;;;;2.65;2.55;;;;;;;;;;4989755;28;20204;-46
2023/03/08 10:34:42;;;;;;;3.00;2.58;;;;;;;;;;4991957;28;20215;-43
2023/03/08 10:37:08;;;;;;;3.20;3.00;;;;;;;;;;4992388;28;20185;-43
2023/03/08 10:39:49;;;;;;;5.43;3.38;;;;;;;;;;4992285;28;20833;-43
2023/03/08 10:42:16;;;;;;;2.60;2.40;;;;;;;;;;4984578;28;20748;-44
2023/03/08 10:44:45;;;;;;;2.20;2.10;;;;;;;;;;4991898;28;20209;-43
2023/03/08 10:47:22;;;;;;;3.30;3.00;;;;;;;;;;4984539;28;20172;-43
2023/03/08 10:49:48;;;;;;;2.30;2.20;;;;;;;;;;4992139;28;20199;-45
2023/03/08 10:52:25;;;;;;;3.30;3.05;;;;;;;;;;4991635;28;20185;-45
2023/03/08 10:55:05;;;;;;;2.88;2.58;;;;;;;;;;4991929;28;20183;-43
2023/03/08 10:57:32;;;;;;;2.97;2.28;;;;;;;;;;4991123;28;20215;-43
2023/03/08 11:00:11;;;;;;;3.55;2.90;;;;;;;;;;4992015;28;20602;-42
2023/03/08 11:02:37;;;;;;;4.10;2.58;;;;;;;;;;4992029;28;20299;-44
2023/03/08 11:05:16;;;;;;;3.30;3.10;;;;;;;;;;4991862;28;20205;-44
2023/03/08 11:07:49;;;;;;;3.38;2.50;;;;;;;;;;4991870;28;20609;-43
2023/03/08 11:10:17;;;;;;;2.42;2.33;;;;;;;;;;4984213;28;20205;-43
2023/03/08 11:12:43;;;;;;;2.90;2.60;;;;;;;;;;4991850;28;20197;-44
2023/03/08 11:15:16;;;;;;;3.05;2.80;;;;;;;;;;4991726;28;20218;-43
2023/03/08 11:17:51;;;;;;;3.20;2.78;;;;;;;;;;4991988;28;20578;-43
2023/03/08 11:20:17;;;;;;;3.28;2.97;;;;;;;;;;4984281;28;20546;-44
2023/03/08 11:23:02;;;;;;;2.80;2.60;;;;;;;;;;4991891;28;20283;-43
2023/03/08 11:25:28;;;;;;;3.38;2.70;;;;;;;;;;4991591;28;20408;-42
2023/03/08 11:27:54;;;;;;;6.77;4.00;;;;;;;;;;4990565;28;20177;-43
2023/03/08 11:30:25;;;;;;;3.10;2.87;;;;;;;;;;4990889;28;20834;-43
2023/03/08 11:32:59;;;;;;;3.10;2.90;;;;;;;;;;4991336;28;20440;-43
2023/03/08 11:35:37;;;;;;;2.85;2.72;;;;;;;;;;4991550;28;20219;-43
2023/03/08 11:38:03;;;;;;;2.90;2.67;;;;;;;;;;4990956;28;20232;-43
2023/03/08 11:40:35;;;;;;;3.37;3.07;;;;;;;;;;4991314;28;20181;-43
2023/03/08 11:43:08;;;;;;;2.70;2.50;;;;;;;;;;4994784;28;20423;-43
2023/03/08 11:45:38;;;;;;;2.67;2.47;;;;;;;;;;4995514;28;20173;-46
2023/03/08 11:48:18;;;;;;;2.90;2.70;;;;;;;;;;4995460;28;20216;-43
2023/03/08 11:50:48;;;;;;;2.80;2.60;;;;;;;;;;4994641;28;20254;-43
2023/03/08 11:53:14;;;;;;;3.15;2.95;;;;;;;;;;4995436;28;20200;-43
2023/03/08 11:56:03;;;;;;;3.40;2.33;;;;;;;;;;4994887;28;20528;-42
2023/03/08 11:58:40;;;;;;;2.92;2.70;;;;;;;;;;4993232;28;20792;-45
2023/03/08 12:01:10;;;;;;;2.50;2.40;;;;;;;;;;4994349;28;20214;-44
2023/03/08 12:03:39;;;;;;;2.85;2.65;;;;;;;;;;4995111;28;20263;-44
2023/03/08 12:06:09;;;;;;;5.65;2.90;;;;;;;;;;4993877;28;20248;-43
2023/03/08 12:08:44;;;;;;;3.40;3.10;;;;;;;;;;4994780;28;20196;-43
2023/03/08 12:11:18;;;;;;;3.45;3.15;;;;;;;;;;4986646;28;20203;-43
2023/03/08 12:13:47;;;;;;;7.63;3.33;;;;;;;;;;4994846;28;20169;-44
2023/03/08 12:16:28;;;;;;;5.18;3.72;;;;;;;;;;4994659;28;20173;-44
2023/03/08 12:18:58;;;;;;;3.75;3.45;;;;;;;;;;4994376;28;20177;-42
2023/03/08 12:21:37;;;;;;;4.63;3.30;;;;;;;;;;4993012;28;20205;-43
2023/03/08 12:24:02;;;;;;;4.10;3.70;;;;;;;;;;4993646;28;20255;-43
2023/03/08 12:26:32;;;;;;;3.17;2.97;;;;;;;;;;4994165;28;20649;-43
2023/03/08 12:29:01;;;;;;;3.70;3.40;;;;;;;;;;4991967;28;20447;-44
2023/03/08 12:31:29;;;;;;;3.53;3.25;;;;;;;;;;4992574;28;20244;-43
2023/03/08 12:33:56;;;;;;;2.90;2.70;;;;;;;;;;4993634;28;20189;-43
2023/03/08 12:36:34;;;;;;;4.10;3.70;;;;;;;;;;4993787;28;20173;-43
2023/03/08 12:39:05;;;;;;;4.85;4.43;;;;;;;;;;4993891;28;20224;-43
2023/03/08 12:41:31;;;;;;;3.47;3.17;;;;;;;;;;4993397;28;20205;-43
2023/03/08 12:44:26;;;;;;;4.25;3.53;;;;;;;;;;4993126;28;20316;-43
2023/03/08 12:46:54;;;;;;;3.40;3.10;;;;;;;;;;4992112;28;20193;-42
2023/03/08 12:49:35;;;;;;;3.55;3.25;;;;;;;;;;4993658;28;20208;-44
2023/03/08 12:52:05;;;;;;;4.57;4.18;;;;;;;;;;4993231;28;20571;-43
2023/03/08 12:54:32;;;;;;;3.50;2.80;;;;;;;;;;4993222;28;20676;-43
2023/03/08 12:56:59;;;;;;;3.10;2.90;;;;;;;;;;4993020;28;20582;-45
2023/03/08 12:59:32;;;;;;;4.35;3.30;;;;;;;;;;4992358;28;20189;-42
2023/03/08 13:02:00;;;;;;;7.43;3.85;;;;;;;;;;4992449;28;20200;-43
2023/03/08 13:04:43;;;;;;;3.42;3.13;;;;;;;;;;4992493;28;20192;-42
2023/03/08 13:07:24;;;;;;;3.85;3.55;;;;;;;;;;4993649;28;20157;-44
2023/03/08 13:10:09;;;;;;;3.55;3.35;;;;;;;;;;4993279;28;20250;-43
2023/03/08 13:12:53;;;;;;;4.68;4.20;;;;;;;;;;4993097;28;20262;-43
2023/03/08 13:15:22;;;;;;;3.45;3.20;;;;;;;;;;4986718;28;20204;-42
2023/03/08 13:17:53;;;;;;;4.68;3.72;;;;;;;;;;4990696;28;20641;-43
2023/03/08 13:20:24;;;;;;;3.38;3.10;;;;;;;;;;4992388;28;20181;-44
2023/03/08 13:22:58;;;;;;;4.10;3.78;;;;;;;;;;4992969;28;20749;-43
2023/03/08 13:26:00;;;;;;;5.07;4.03;;;;;;;;;;4992783;28;20251;-43
2023/03/08 13:28:27;;;;;;;4.13;3.75;;;;;;;;;;5017078;28;20214;-43
2023/03/08 13:30:56;;;;;;;6.78;5.07;;;;;;;;;;4997399;28;20284;-43
2023/03/08 13:33:24;;;;;;;5.65;4.47;;;;;;;;;;4992430;28;20704;-43
2023/03/08 13:36:04;;;;;;;10.93;7.32;;;;;;;;;;4992746;28;20173;-43
2023/03/08 13:38:32;;;;;;;11.93;9.88;;;;;;;;;;4992880;28;20177;-43
2023/03/08 13:40:58;;;;;;;2.88;2.60;;;;;;;;;;4990947;28;20188;-43
2023/03/08 13:43:26;;;;;;;6.32;4.38;;;;;;;;;;4992722;28;20284;-45
2023/03/08 13:45:53;;;;;;;4.82;4.38;;;;;;;;;;4990051;28;20618;-44
2023/03/08 13:48:21;;;;;;;4.05;3.75;;;;;;;;;;4992452;28;20598;-43
2023/03/08 13:50:51;;;;;;;4.88;4.47;;;;;;;;;;4991595;28;20204;-43
2023/03/08 13:53:39;;;;;;;5.30;4.07;;;;;;;;;;4992214;28;20193;-44
2023/03/08 13:56:05;;;;;;;4.85;4.25;;;;;;;;;;4992057;28;20173;-42
2023/03/08 13:58:33;;;;;;;4.45;4.05;;;;;;;;;;4991456;28;20181;-43
2023/03/08 14:01:10;;;;;;;6.40;5.00;;;;;;;;;;4983656;28;20558;-43
2023/03/08 14:03:35;;;;;;;6.72;4.78;;;;;;;;;;4992072;28;20189;-42
2023/03/08 14:06:01;;;;;;;4.07;3.83;;;;;;;;;;4992046;28;20188;-43
2023/03/08 14:08:27;;;;;;;5.50;4.68;;;;;;;;;;4992569;28;20422;-43
2023/03/08 14:10:53;;;;;;;8.47;4.87;;;;;;;;;;4991159;28;20200;-43
2023/03/08 14:13:30;;;;;;;5.47;4.97;;;;;;;;;;4990113;28;20542;-43
2023/03/08 14:15:58;;;;;;;6.72;4.95;;;;;;;;;;4991888;28;20963;-43
2023/03/08 14:18:27;;;;;;;5.95;5.45;;;;;;;;;;4991937;28;20252;-43
2023/03/08 14:21:02;;;;;;;6.57;5.60;;;;;;;;;;4991420;28;20210;-42
2023/03/08 14:23:28;;;;;;;7.32;5.10;;;;;;;;;;4991643;28;20199;-44
2023/03/08 14:25:57;;;;;;;6.30;5.70;;;;;;;;;;4991751;28;20189;-42
2023/03/08 14:28:39;;;;;;;4.82;3.90;;;;;;;;;;4991633;28;20189;-43
2023/03/08 14:31:24;;;;;;;5.63;5.10;;;;;;;;;;4990901;28;20206;-43
2023/03/08 14:34:01;;;;;;;5.45;4.90;;;;;;;;;;4988751;28;20192;-43
2023/03/08 14:36:29;;;;;;;7.13;5.97;;;;;;;;;;4990814;28;20234;-44
2023/03/08 14:38:55;;;;;;;7.45;6.75;;;;;;;;;;4991953;28;20272;-42
2023/03/08 14:41:34;;;;;;;7.05;6.35;;;;;;;;;;4990849;28;20187;-43